sensor_id;sensor_type;location;lat;lon;timestamp;P1;durP1;ratioP1;P2;durP2;ratioP2
20142;SDS011;10509;46.476;7.134;2023-02-28T00:00:51;7.90;;;7.50;;
20142;SDS011;10509;46.476;7.134;2023-02-28T00:03:17;8.57;;;8.07;;
20142;SDS011;10509;46.476;7.134;2023-02-28T00:05:43;8.30;;;7.83;;
20142;SDS011;10509;46.476;7.134;2023-02-28T00:08:09;7.73;;;7.33;;
20142;SDS011;10509;46.476;7.134;2023-02-28T00:10:35;7.63;;;7.23;;
20142;SDS011;10509;46.476;7.134;2023-02-28T00:13:03;8.13;;;7.73;;
20142;SDS011;10509;46.476;7.134;2023-02-28T00:15:29;8.20;;;7.70;;
20142;SDS011;10509;46.476;7.134;2023-02-28T00:17:56;8.23;;;7.83;;
20142;SDS011;10509;46.476;7.134;2023-02-28T00:20:22;8.10;;;7.50;;
20142;SDS011;10509;46.476;7.134;2023-02-28T00:22:49;8.30;;;7.90;;
20142;SDS011;10509;46.476;7.134;2023-02-28T00:25:16;8.70;;;8.20;;
20142;SDS011;10509;46.476;7.134;2023-02-28T00:27:43;8.37;;;7.87;;
20142;SDS011;10509;46.476;7.134;2023-02-28T00:30:10;8.60;;;8.10;;
20142;SDS011;10509;46.476;7.134;2023-02-28T00:32:37;8.27;;;7.73;;
20142;SDS011;10509;46.476;7.134;2023-02-28T00:35:03;8.37;;;7.87;;
20142;SDS011;10509;46.476;7.134;2023-02-28T00:37:29;8.90;;;8.33;;
20142;SDS011;10509;46.476;7.134;2023-02-28T00:39:55;8.43;;;7.93;;
20142;SDS011;10509;46.476;7.134;2023-02-28T00:42:22;7.83;;;7.43;;
20142;SDS011;10509;46.476;7.134;2023-02-28T00:44:48;8.67;;;8.17;;
20142;SDS011;10509;46.476;7.134;2023-02-28T00:47:14;8.40;;;7.97;;
20142;SDS011;10509;46.476;7.134;2023-02-28T00:49:40;8.67;;;8.27;;
20142;SDS011;10509;46.476;7.134;2023-02-28T00:52:06;8.83;;;8.23;;
20142;SDS011;10509;46.476;7.134;2023-02-28T00:54:32;8.50;;;8.00;;
20142;SDS011;10509;46.476;7.134;2023-02-28T00:56:58;8.30;;;7.80;;
20142;SDS011;10509;46.476;7.134;2023-02-28T00:59:25;9.23;;;8.73;;
20142;SDS011;10509;46.476;7.134;2023-02-28T01:01:51;8.97;;;8.47;;
20142;SDS011;10509;46.476;7.134;2023-02-28T01:04:17;8.97;;;8.47;;
20142;SDS011;10509;46.476;7.134;2023-02-28T01:06:43;9.20;;;8.70;;
20142;SDS011;10509;46.476;7.134;2023-02-28T01:09:09;9.27;;;8.77;;
20142;SDS011;10509;46.476;7.134;2023-02-28T01:11:35;9.27;;;8.67;;
20142;SDS011;10509;46.476;7.134;2023-02-28T01:14:02;9.30;;;8.70;;
20142;SDS011;10509;46.476;7.134;2023-02-28T01:16:29;9.00;;;8.40;;
20142;SDS011;10509;46.476;7.134;2023-02-28T01:18:55;8.43;;;7.93;;
20142;SDS011;10509;46.476;7.134;2023-02-28T01:21:21;8.63;;;8.13;;
20142;SDS011;10509;46.476;7.134;2023-02-28T01:23:48;7.77;;;7.27;;
20142;SDS011;10509;46.476;7.134;2023-02-28T01:26:15;8.50;;;8.00;;
20142;SDS011;10509;46.476;7.134;2023-02-28T01:28:42;9.10;;;8.60;;
20142;SDS011;10509;46.476;7.134;2023-02-28T01:31:08;8.20;;;7.77;;
20142;SDS011;10509;46.476;7.134;2023-02-28T01:33:35;8.70;;;8.20;;
20142;SDS011;10509;46.476;7.134;2023-02-28T01:36:03;9.03;;;8.53;;
20142;SDS011;10509;46.476;7.134;2023-02-28T01:38:29;8.33;;;7.83;;
20142;SDS011;10509;46.476;7.134;2023-02-28T01:40:55;9.07;;;8.57;;
20142;SDS011;10509;46.476;7.134;2023-02-28T01:43:23;8.77;;;8.27;;
20142;SDS011;10509;46.476;7.134;2023-02-28T01:45:51;9.53;;;8.93;;
20142;SDS011;10509;46.476;7.134;2023-02-28T01:48:17;9.17;;;8.67;;
20142;SDS011;10509;46.476;7.134;2023-02-28T01:50:43;9.90;;;9.30;;
20142;SDS011;10509;46.476;7.134;2023-02-28T01:53:12;8.67;;;8.27;;
20142;SDS011;10509;46.476;7.134;2023-02-28T01:55:39;9.43;;;8.93;;
20142;SDS011;10509;46.476;7.134;2023-02-28T01:58:06;10.17;;;9.57;;
20142;SDS011;10509;46.476;7.134;2023-02-28T02:00:34;10.17;;;9.57;;
20142;SDS011;10509;46.476;7.134;2023-02-28T02:03:01;9.93;;;9.33;;
20142;SDS011;10509;46.476;7.134;2023-02-28T02:05:30;9.50;;;9.00;;
20142;SDS011;10509;46.476;7.134;2023-02-28T02:07:58;9.60;;;9.10;;
20142;SDS011;10509;46.476;7.134;2023-02-28T02:34:00;10.00;;;9.27;;
20142;SDS011;10509;46.476;7.134;2023-02-28T02:36:37;10.00;;;9.30;;
20142;SDS011;10509;46.476;7.134;2023-02-28T02:39:13;9.37;;;8.80;;
20142;SDS011;10509;46.476;7.134;2023-02-28T02:41:50;9.80;;;9.30;;
20142;SDS011;10509;46.476;7.134;2023-02-28T02:46:43;9.77;;;9.27;;
20142;SDS011;10509;46.476;7.134;2023-02-28T02:49:13;9.47;;;8.90;;
20142;SDS011;10509;46.476;7.134;2023-02-28T02:51:41;9.33;;;8.83;;
20142;SDS011;10509;46.476;7.134;2023-02-28T02:54:08;9.97;;;9.27;;
20142;SDS011;10509;46.476;7.134;2023-02-28T02:56:37;9.80;;;9.30;;
20142;SDS011;10509;46.476;7.134;2023-02-28T02:59:07;9.07;;;8.57;;
20142;SDS011;10509;46.476;7.134;2023-02-28T03:01:34;9.57;;;9.07;;
20142;SDS011;10509;46.476;7.134;2023-02-28T03:04:01;9.00;;;8.50;;
20142;SDS011;10509;46.476;7.134;2023-02-28T03:06:28;9.63;;;9.13;;
20142;SDS011;10509;46.476;7.134;2023-02-28T03:08:54;9.60;;;9.10;;
20142;SDS011;10509;46.476;7.134;2023-02-28T03:11:20;9.67;;;8.97;;
20142;SDS011;10509;46.476;7.134;2023-02-28T03:17:14;10.13;;;9.57;;
20142;SDS011;10509;46.476;7.134;2023-02-28T03:22:14;9.57;;;9.07;;
20142;SDS011;10509;46.476;7.134;2023-02-28T03:24:43;9.73;;;9.10;;
20142;SDS011;10509;46.476;7.134;2023-02-28T03:27:15;9.43;;;8.83;;
20142;SDS011;10509;46.476;7.134;2023-02-28T03:29:43;9.47;;;8.87;;
20142;SDS011;10509;46.476;7.134;2023-02-28T03:32:17;9.37;;;8.87;;
20142;SDS011;10509;46.476;7.134;2023-02-28T03:34:48;9.30;;;8.80;;
20142;SDS011;10509;46.476;7.134;2023-02-28T03:37:18;10.40;;;9.80;;
20142;SDS011;10509;46.476;7.134;2023-02-28T03:39:46;10.33;;;9.73;;
20142;SDS011;10509;46.476;7.134;2023-02-28T03:42:20;10.00;;;9.30;;
20142;SDS011;10509;46.476;7.134;2023-02-28T03:44:49;10.43;;;9.83;;
20142;SDS011;10509;46.476;7.134;2023-02-28T03:47:24;9.67;;;9.17;;
20142;SDS011;10509;46.476;7.134;2023-02-28T03:52:38;10.13;;;9.60;;
20142;SDS011;10509;46.476;7.134;2023-02-28T03:55:10;10.30;;;9.70;;
20142;SDS011;10509;46.476;7.134;2023-02-28T03:57:38;10.70;;;9.90;;
20142;SDS011;10509;46.476;7.134;2023-02-28T04:00:10;10.30;;;9.77;;
20142;SDS011;10509;46.476;7.134;2023-02-28T04:02:38;10.10;;;9.50;;
20142;SDS011;10509;46.476;7.134;2023-02-28T04:05:04;10.60;;;9.90;;
20142;SDS011;10509;46.476;7.134;2023-02-28T04:07:31;9.90;;;9.40;;
20142;SDS011;10509;46.476;7.134;2023-02-28T04:09:57;10.77;;;10.17;;
20142;SDS011;10509;46.476;7.134;2023-02-28T04:12:24;10.20;;;9.50;;
20142;SDS011;10509;46.476;7.134;2023-02-28T04:14:50;10.70;;;10.00;;
20142;SDS011;10509;46.476;7.134;2023-02-28T04:17:16;11.70;;;10.50;;
20142;SDS011;10509;46.476;7.134;2023-02-28T04:19:42;10.87;;;10.27;;
20142;SDS011;10509;46.476;7.134;2023-02-28T04:22:09;10.20;;;9.60;;
20142;SDS011;10509;46.476;7.134;2023-02-28T04:24:35;10.53;;;9.93;;
20142;SDS011;10509;46.476;7.134;2023-02-28T04:27:02;10.53;;;9.83;;
20142;SDS011;10509;46.476;7.134;2023-02-28T04:29:29;10.43;;;9.80;;
20142;SDS011;10509;46.476;7.134;2023-02-28T04:31:56;10.43;;;9.90;;
20142;SDS011;10509;46.476;7.134;2023-02-28T04:34:22;10.77;;;10.17;;
20142;SDS011;10509;46.476;7.134;2023-02-28T04:36:49;10.80;;;10.20;;
20142;SDS011;10509;46.476;7.134;2023-02-28T04:39:18;10.00;;;9.50;;
20142;SDS011;10509;46.476;7.134;2023-02-28T04:41:45;10.77;;;9.93;;
20142;SDS011;10509;46.476;7.134;2023-02-28T04:44:11;10.90;;;10.17;;
20142;SDS011;10509;46.476;7.134;2023-02-28T04:46:37;12.13;;;11.33;;
20142;SDS011;10509;46.476;7.134;2023-02-28T04:49:03;11.20;;;10.50;;
20142;SDS011;10509;46.476;7.134;2023-02-28T04:51:29;11.90;;;11.30;;
20142;SDS011;10509;46.476;7.134;2023-02-28T04:53:56;11.07;;;10.47;;
20142;SDS011;10509;46.476;7.134;2023-02-28T04:56:22;11.80;;;11.10;;
20142;SDS011;10509;46.476;7.134;2023-02-28T04:58:48;11.60;;;11.00;;
20142;SDS011;10509;46.476;7.134;2023-02-28T05:03:44;11.97;;;11.20;;
20142;SDS011;10509;46.476;7.134;2023-02-28T05:06:11;11.70;;;11.03;;
20142;SDS011;10509;46.476;7.134;2023-02-28T05:08:37;11.37;;;10.57;;
20142;SDS011;10509;46.476;7.134;2023-02-28T05:11:03;11.77;;;11.10;;
20142;SDS011;10509;46.476;7.134;2023-02-28T05:13:29;11.37;;;10.77;;
20142;SDS011;10509;46.476;7.134;2023-02-28T05:15:55;12.17;;;11.47;;
20142;SDS011;10509;46.476;7.134;2023-02-28T05:18:22;11.67;;;10.87;;
20142;SDS011;10509;46.476;7.134;2023-02-28T05:20:48;12.50;;;11.40;;
20142;SDS011;10509;46.476;7.134;2023-02-28T05:23:14;10.57;;;9.97;;
20142;SDS011;10509;46.476;7.134;2023-02-28T05:25:40;12.90;;;12.10;;
20142;SDS011;10509;46.476;7.134;2023-02-28T05:28:06;12.37;;;11.57;;
20142;SDS011;10509;46.476;7.134;2023-02-28T05:30:33;12.13;;;11.30;;
20142;SDS011;10509;46.476;7.134;2023-02-28T05:32:59;12.90;;;11.73;;
20142;SDS011;10509;46.476;7.134;2023-02-28T05:35:25;11.63;;;10.93;;
20142;SDS011;10509;46.476;7.134;2023-02-28T05:37:51;11.70;;;11.00;;
20142;SDS011;10509;46.476;7.134;2023-02-28T05:40:17;11.67;;;10.83;;
20142;SDS011;10509;46.476;7.134;2023-02-28T05:42:45;12.30;;;11.60;;
20142;SDS011;10509;46.476;7.134;2023-02-28T05:45:11;11.50;;;10.80;;
20142;SDS011;10509;46.476;7.134;2023-02-28T05:47:37;11.40;;;10.70;;
20142;SDS011;10509;46.476;7.134;2023-02-28T05:50:04;11.43;;;10.73;;
20142;SDS011;10509;46.476;7.134;2023-02-28T05:52:31;12.83;;;11.03;;
20142;SDS011;10509;46.476;7.134;2023-02-28T05:54:57;12.63;;;11.73;;
20142;SDS011;10509;46.476;7.134;2023-02-28T05:57:23;11.87;;;11.17;;
20142;SDS011;10509;46.476;7.134;2023-02-28T05:59:49;11.73;;;10.93;;
20142;SDS011;10509;46.476;7.134;2023-02-28T06:02:16;11.67;;;10.97;;
20142;SDS011;10509;46.476;7.134;2023-02-28T06:04:42;12.30;;;11.40;;
20142;SDS011;10509;46.476;7.134;2023-02-28T06:07:09;11.50;;;10.80;;
20142;SDS011;10509;46.476;7.134;2023-02-28T06:09:35;12.33;;;11.63;;
20142;SDS011;10509;46.476;7.134;2023-02-28T06:12:02;10.57;;;9.97;;
20142;SDS011;10509;46.476;7.134;2023-02-28T06:14:30;12.00;;;11.30;;
20142;SDS011;10509;46.476;7.134;2023-02-28T06:16:57;12.83;;;11.87;;
20142;SDS011;10509;46.476;7.134;2023-02-28T06:19:23;12.47;;;11.77;;
20142;SDS011;10509;46.476;7.134;2023-02-28T06:21:50;12.17;;;11.47;;
20142;SDS011;10509;46.476;7.134;2023-02-28T06:24:18;12.57;;;11.83;;
20142;SDS011;10509;46.476;7.134;2023-02-28T06:26:44;13.03;;;12.13;;
20142;SDS011;10509;46.476;7.134;2023-02-28T06:29:10;12.70;;;11.90;;
20142;SDS011;10509;46.476;7.134;2023-02-28T06:31:37;35.77;;;13.97;;
20142;SDS011;10509;46.476;7.134;2023-02-28T06:34:05;13.00;;;12.10;;
20142;SDS011;10509;46.476;7.134;2023-02-28T06:36:31;12.70;;;11.57;;
20142;SDS011;10509;46.476;7.134;2023-02-28T06:38:57;12.00;;;11.17;;
20142;SDS011;10509;46.476;7.134;2023-02-28T06:41:25;12.70;;;11.90;;
20142;SDS011;10509;46.476;7.134;2023-02-28T06:43:51;13.07;;;12.30;;
20142;SDS011;10509;46.476;7.134;2023-02-28T06:46:18;14.80;;;12.60;;
20142;SDS011;10509;46.476;7.134;2023-02-28T06:48:44;13.20;;;12.20;;
20142;SDS011;10509;46.476;7.134;2023-02-28T06:51:15;12.90;;;11.83;;
20142;SDS011;10509;46.476;7.134;2023-02-28T06:53:41;13.43;;;12.73;;
20142;SDS011;10509;46.476;7.134;2023-02-28T06:56:08;12.13;;;11.43;;
20142;SDS011;10509;46.476;7.134;2023-02-28T06:58:35;13.67;;;12.23;;
20142;SDS011;10509;46.476;7.134;2023-02-28T07:01:02;12.87;;;12.17;;
20142;SDS011;10509;46.476;7.134;2023-02-28T07:03:28;12.67;;;11.87;;
20142;SDS011;10509;46.476;7.134;2023-02-28T07:05:54;12.43;;;11.73;;
20142;SDS011;10509;46.476;7.134;2023-02-28T07:08:22;14.03;;;12.90;;
20142;SDS011;10509;46.476;7.134;2023-02-28T07:10:50;13.77;;;12.97;;
20142;SDS011;10509;46.476;7.134;2023-02-28T07:13:17;13.37;;;12.53;;
20142;SDS011;10509;46.476;7.134;2023-02-28T07:15:42;14.03;;;13.03;;
20142;SDS011;10509;46.476;7.134;2023-02-28T07:18:09;12.83;;;12.03;;
20142;SDS011;10509;46.476;7.134;2023-02-28T07:20:35;13.77;;;13.00;;
20142;SDS011;10509;46.476;7.134;2023-02-28T07:23:01;13.37;;;12.47;;
20142;SDS011;10509;46.476;7.134;2023-02-28T07:25:27;13.20;;;12.33;;
20142;SDS011;10509;46.476;7.134;2023-02-28T07:27:53;12.87;;;12.07;;
20142;SDS011;10509;46.476;7.134;2023-02-28T07:30:20;13.87;;;13.13;;
20142;SDS011;10509;46.476;7.134;2023-02-28T07:32:46;14.13;;;12.93;;
20142;SDS011;10509;46.476;7.134;2023-02-28T07:35:12;13.40;;;12.67;;
20142;SDS011;10509;46.476;7.134;2023-02-28T07:37:40;14.70;;;13.30;;
20142;SDS011;10509;46.476;7.134;2023-02-28T07:40:07;13.80;;;13.00;;
20142;SDS011;10509;46.476;7.134;2023-02-28T07:42:37;14.63;;;13.60;;
20142;SDS011;10509;46.476;7.134;2023-02-28T07:45:04;19.80;;;13.00;;
20142;SDS011;10509;46.476;7.134;2023-02-28T07:47:30;11.93;;;11.00;;
20142;SDS011;10509;46.476;7.134;2023-02-28T07:49:56;12.53;;;11.53;;
20142;SDS011;10509;46.476;7.134;2023-02-28T07:52:23;13.13;;;12.17;;
20142;SDS011;10509;46.476;7.134;2023-02-28T07:54:49;14.00;;;13.17;;
20142;SDS011;10509;46.476;7.134;2023-02-28T07:57:15;12.80;;;12.03;;
20142;SDS011;10509;46.476;7.134;2023-02-28T07:59:41;14.13;;;13.03;;
20142;SDS011;10509;46.476;7.134;2023-02-28T08:02:12;15.70;;;14.70;;
20142;SDS011;10509;46.476;7.134;2023-02-28T08:04:39;12.50;;;11.70;;
20142;SDS011;10509;46.476;7.134;2023-02-28T08:07:05;13.27;;;12.17;;
20142;SDS011;10509;46.476;7.134;2023-02-28T08:09:31;14.63;;;12.77;;
20142;SDS011;10509;46.476;7.134;2023-02-28T08:11:57;13.67;;;11.50;;
20142;SDS011;10509;46.476;7.134;2023-02-28T08:14:23;12.13;;;11.10;;
20142;SDS011;10509;46.476;7.134;2023-02-28T08:16:49;12.37;;;11.20;;
20142;SDS011;10509;46.476;7.134;2023-02-28T08:19:15;12.60;;;11.80;;
20142;SDS011;10509;46.476;7.134;2023-02-28T08:21:41;12.13;;;11.33;;
20142;SDS011;10509;46.476;7.134;2023-02-28T08:24:07;11.70;;;10.80;;
20142;SDS011;10509;46.476;7.134;2023-02-28T08:26:34;11.93;;;11.17;;
20142;SDS011;10509;46.476;7.134;2023-02-28T08:29:00;13.97;;;11.37;;
20142;SDS011;10509;46.476;7.134;2023-02-28T08:31:26;12.07;;;11.10;;
20142;SDS011;10509;46.476;7.134;2023-02-28T08:33:52;11.83;;;11.20;;
20142;SDS011;10509;46.476;7.134;2023-02-28T08:36:21;10.10;;;9.37;;
20142;SDS011;10509;46.476;7.134;2023-02-28T08:38:47;10.70;;;10.03;;
20142;SDS011;10509;46.476;7.134;2023-02-28T08:41:13;10.60;;;9.90;;
20142;SDS011;10509;46.476;7.134;2023-02-28T08:43:40;10.30;;;9.80;;
20142;SDS011;10509;46.476;7.134;2023-02-28T08:46:06;9.40;;;8.70;;
20142;SDS011;10509;46.476;7.134;2023-02-28T08:48:33;11.57;;;10.67;;
20142;SDS011;10509;46.476;7.134;2023-02-28T08:51:07;9.20;;;8.70;;
20142;SDS011;10509;46.476;7.134;2023-02-28T08:53:34;9.13;;;8.63;;
20142;SDS011;10509;46.476;7.134;2023-02-28T08:56:05;10.30;;;9.70;;
20142;SDS011;10509;46.476;7.134;2023-02-28T08:58:31;10.00;;;9.27;;
20142;SDS011;10509;46.476;7.134;2023-02-28T09:00:57;9.57;;;9.00;;
20142;SDS011;10509;46.476;7.134;2023-02-28T09:03:23;9.20;;;8.60;;
20142;SDS011;10509;46.476;7.134;2023-02-28T09:05:54;8.83;;;8.33;;
20142;SDS011;10509;46.476;7.134;2023-02-28T09:08:20;8.17;;;7.50;;
20142;SDS011;10509;46.476;7.134;2023-02-28T09:10:46;6.77;;;6.37;;
20142;SDS011;10509;46.476;7.134;2023-02-28T09:13:12;9.03;;;8.23;;
20142;SDS011;10509;46.476;7.134;2023-02-28T09:15:38;7.07;;;6.67;;
20142;SDS011;10509;46.476;7.134;2023-02-28T09:18:04;7.57;;;7.17;;
20142;SDS011;10509;46.476;7.134;2023-02-28T09:20:30;8.23;;;7.83;;
20142;SDS011;10509;46.476;7.134;2023-02-28T09:22:56;8.53;;;8.03;;
20142;SDS011;10509;46.476;7.134;2023-02-28T09:25:22;9.17;;;8.60;;
20142;SDS011;10509;46.476;7.134;2023-02-28T09:27:48;8.43;;;7.93;;
20142;SDS011;10509;46.476;7.134;2023-02-28T09:30:14;8.70;;;8.10;;
20142;SDS011;10509;46.476;7.134;2023-02-28T09:32:41;8.23;;;7.73;;
20142;SDS011;10509;46.476;7.134;2023-02-28T09:35:07;7.07;;;6.63;;
20142;SDS011;10509;46.476;7.134;2023-02-28T09:37:38;8.07;;;7.60;;
20142;SDS011;10509;46.476;7.134;2023-02-28T09:40:05;7.20;;;6.80;;
20142;SDS011;10509;46.476;7.134;2023-02-28T09:42:32;6.23;;;5.83;;
20142;SDS011;10509;46.476;7.134;2023-02-28T09:45:00;8.87;;;8.23;;
20142;SDS011;10509;46.476;7.134;2023-02-28T09:47:34;9.27;;;8.37;;
20142;SDS011;10509;46.476;7.134;2023-02-28T09:50:46;7.57;;;7.17;;
20142;SDS011;10509;46.476;7.134;2023-02-28T09:52:53;7.43;;;6.93;;
20142;SDS011;10509;46.476;7.134;2023-02-28T09:57:45;6.57;;;6.17;;
20142;SDS011;10509;46.476;7.134;2023-02-28T10:00:18;6.77;;;6.37;;
20142;SDS011;10509;46.476;7.134;2023-02-28T10:05:17;7.47;;;6.90;;
20142;SDS011;10509;46.476;7.134;2023-02-28T10:07:53;6.37;;;5.97;;
20142;SDS011;10509;46.476;7.134;2023-02-28T10:10:26;11.20;;;7.33;;
20142;SDS011;10509;46.476;7.134;2023-02-28T10:12:54;6.73;;;6.07;;
20142;SDS011;10509;46.476;7.134;2023-02-28T10:15:22;5.70;;;5.30;;
20142;SDS011;10509;46.476;7.134;2023-02-28T10:17:51;5.30;;;5.00;;
20142;SDS011;10509;46.476;7.134;2023-02-28T10:20:19;6.67;;;6.07;;
20142;SDS011;10509;46.476;7.134;2023-02-28T10:22:53;7.87;;;7.23;;
20142;SDS011;10509;46.476;7.134;2023-02-28T10:25:24;8.60;;;8.10;;
20142;SDS011;10509;46.476;7.134;2023-02-28T10:27:58;12.90;;;8.43;;
20142;SDS011;10509;46.476;7.134;2023-02-28T10:30:26;8.40;;;7.70;;
20142;SDS011;10509;46.476;7.134;2023-02-28T10:32:52;8.30;;;7.70;;
20142;SDS011;10509;46.476;7.134;2023-02-28T10:35:23;8.40;;;7.80;;
20142;SDS011;10509;46.476;7.134;2023-02-28T10:37:51;8.33;;;7.87;;
20142;SDS011;10509;46.476;7.134;2023-02-28T10:42:54;8.67;;;7.20;;
20142;SDS011;10509;46.476;7.134;2023-02-28T10:45:20;7.40;;;7.00;;
20142;SDS011;10509;46.476;7.134;2023-02-28T10:47:49;8.20;;;7.70;;
20142;SDS011;10509;46.476;7.134;2023-02-28T10:52:55;6.73;;;6.23;;
20142;SDS011;10509;46.476;7.134;2023-02-28T10:55:25;8.70;;;8.00;;
20142;SDS011;10509;46.476;7.134;2023-02-28T10:57:51;12.57;;;8.47;;
20142;SDS011;10509;46.476;7.134;2023-02-28T11:00:22;7.90;;;7.40;;
20142;SDS011;10509;46.476;7.134;2023-02-28T11:02:50;8.50;;;7.80;;
20142;SDS011;10509;46.476;7.134;2023-02-28T11:05:29;8.90;;;8.17;;
20142;SDS011;10509;46.476;7.134;2023-02-28T11:10:29;8.03;;;7.57;;
20142;SDS011;10509;46.476;7.134;2023-02-28T11:12:56;8.63;;;7.93;;
20142;SDS011;10509;46.476;7.134;2023-02-28T11:15:23;7.50;;;6.90;;
20142;SDS011;10509;46.476;7.134;2023-02-28T11:17:57;8.03;;;7.57;;
20142;SDS011;10509;46.476;7.134;2023-02-28T11:20:25;8.13;;;7.60;;
20142;SDS011;10509;46.476;7.134;2023-02-28T11:22:51;8.37;;;7.87;;
20142;SDS011;10509;46.476;7.134;2023-02-28T11:27:49;9.03;;;8.43;;
20142;SDS011;10509;46.476;7.134;2023-02-28T11:30:28;8.67;;;8.13;;
20142;SDS011;10509;46.476;7.134;2023-02-28T11:32:54;7.93;;;7.43;;
20142;SDS011;10509;46.476;7.134;2023-02-28T11:35:26;8.47;;;8.03;;
20142;SDS011;10509;46.476;7.134;2023-02-28T11:37:54;7.97;;;7.57;;
20142;SDS011;10509;46.476;7.134;2023-02-28T11:48:20;7.87;;;7.37;;
20142;SDS011;10509;46.476;7.134;2023-02-28T11:58:39;9.50;;;8.80;;
20142;SDS011;10509;46.476;7.134;2023-02-28T12:03:44;9.03;;;8.53;;
20142;SDS011;10509;46.476;7.134;2023-02-28T12:08:47;8.57;;;8.07;;
20142;SDS011;10509;46.476;7.134;2023-02-28T12:26:48;9.53;;;8.83;;
20142;SDS011;10509;46.476;7.134;2023-02-28T12:29:28;10.03;;;9.13;;
20142;SDS011;10509;46.476;7.134;2023-02-28T12:34:41;9.93;;;9.23;;
20142;SDS011;10509;46.476;7.134;2023-02-28T12:37:19;10.03;;;9.43;;
20142;SDS011;10509;46.476;7.134;2023-02-28T12:39:48;10.33;;;9.73;;
20142;SDS011;10509;46.476;7.134;2023-02-28T12:42:26;10.90;;;10.10;;
20142;SDS011;10509;46.476;7.134;2023-02-28T12:44:54;9.33;;;8.63;;
20142;SDS011;10509;46.476;7.134;2023-02-28T12:47:22;10.30;;;9.60;;
20142;SDS011;10509;46.476;7.134;2023-02-28T12:49:50;10.23;;;9.63;;
20142;SDS011;10509;46.476;7.134;2023-02-28T12:52:20;10.73;;;9.63;;
20142;SDS011;10509;46.476;7.134;2023-02-28T12:57:32;10.63;;;9.87;;
20142;SDS011;10509;46.476;7.134;2023-02-28T13:00:01;10.50;;;9.87;;
20142;SDS011;10509;46.476;7.134;2023-02-28T13:13:11;11.30;;;10.40;;
20142;SDS011;10509;46.476;7.134;2023-02-28T13:15:39;10.80;;;10.17;;
20142;SDS011;10509;46.476;7.134;2023-02-28T13:18:24;11.00;;;10.30;;
20142;SDS011;10509;46.476;7.134;2023-02-28T13:20:53;11.37;;;10.60;;
20142;SDS011;10509;46.476;7.134;2023-02-28T13:24:36;10.53;;;9.87;;
20142;SDS011;10509;46.476;7.134;2023-02-28T13:26:19;11.70;;;10.87;;
20142;SDS011;10509;46.476;7.134;2023-02-28T13:31:14;11.63;;;10.93;;
20142;SDS011;10509;46.476;7.134;2023-02-28T13:36:27;12.00;;;11.20;;
20142;SDS011;10509;46.476;7.134;2023-02-28T13:41:44;12.67;;;11.87;;
20142;SDS011;10509;46.476;7.134;2023-02-28T13:44:15;12.27;;;11.57;;
20142;SDS011;10509;46.476;7.134;2023-02-28T13:59:29;12.00;;;11.30;;
20142;SDS011;10509;46.476;7.134;2023-02-28T14:07:25;12.30;;;11.60;;
20142;SDS011;10509;46.476;7.134;2023-02-28T14:09:59;11.77;;;11.07;;
20142;SDS011;10509;46.476;7.134;2023-02-28T14:17:55;12.60;;;11.80;;
20142;SDS011;10509;46.476;7.134;2023-02-28T14:20:25;12.67;;;11.87;;
20142;SDS011;10509;46.476;7.134;2023-02-28T14:38:25;12.13;;;11.43;;
20142;SDS011;10509;46.476;7.134;2023-02-28T14:40:55;13.87;;;12.53;;
20142;SDS011;10509;46.476;7.134;2023-02-28T14:43:26;12.40;;;11.30;;
20142;SDS011;10509;46.476;7.134;2023-02-28T14:45:56;13.00;;;11.67;;
20142;SDS011;10509;46.476;7.134;2023-02-28T14:48:22;12.77;;;11.77;;
20142;SDS011;10509;46.476;7.134;2023-02-28T14:50:53;12.33;;;11.53;;
20142;SDS011;10509;46.476;7.134;2023-02-28T14:53:21;13.23;;;12.30;;
20142;SDS011;10509;46.476;7.134;2023-02-28T14:55:48;13.47;;;12.47;;
20142;SDS011;10509;46.476;7.134;2023-02-28T15:00:47;13.27;;;12.27;;
20142;SDS011;10509;46.476;7.134;2023-02-28T15:03:33;12.13;;;11.27;;
20142;SDS011;10509;46.476;7.134;2023-02-28T15:06:00;12.83;;;12.03;;
20142;SDS011;10509;46.476;7.134;2023-02-28T15:08:27;14.53;;;13.43;;
20142;SDS011;10509;46.476;7.134;2023-02-28T15:13:20;13.53;;;12.47;;
20142;SDS011;10509;46.476;7.134;2023-02-28T15:18:22;13.83;;;12.93;;
20142;SDS011;10509;46.476;7.134;2023-02-28T15:20:49;12.47;;;11.50;;
20142;SDS011;10509;46.476;7.134;2023-02-28T15:23:16;13.50;;;12.57;;
20142;SDS011;10509;46.476;7.134;2023-02-28T15:25:43;13.67;;;12.87;;
20142;SDS011;10509;46.476;7.134;2023-02-28T15:28:11;14.27;;;13.17;;
20142;SDS011;10509;46.476;7.134;2023-02-28T15:30:39;14.70;;;13.10;;
20142;SDS011;10509;46.476;7.134;2023-02-28T15:35:41;13.17;;;11.90;;
20142;SDS011;10509;46.476;7.134;2023-02-28T15:38:16;13.13;;;12.17;;
20142;SDS011;10509;46.476;7.134;2023-02-28T15:40:46;13.77;;;12.43;;
20142;SDS011;10509;46.476;7.134;2023-02-28T15:43:25;13.90;;;12.70;;
20142;SDS011;10509;46.476;7.134;2023-02-28T15:48:22;13.73;;;12.83;;
20142;SDS011;10509;46.476;7.134;2023-02-28T15:50:50;17.17;;;14.43;;
20142;SDS011;10509;46.476;7.134;2023-02-28T15:53:19;13.83;;;13.03;;
20142;SDS011;10509;46.476;7.134;2023-02-28T15:55:51;14.57;;;12.50;;
20142;SDS011;10509;46.476;7.134;2023-02-28T15:58:17;13.20;;;12.20;;
20142;SDS011;10509;46.476;7.134;2023-02-28T16:00:44;13.87;;;13.07;;
20142;SDS011;10509;46.476;7.134;2023-02-28T16:03:26;12.80;;;12.00;;
20142;SDS011;10509;46.476;7.134;2023-02-28T16:06:08;14.57;;;13.30;;
20142;SDS011;10509;46.476;7.134;2023-02-28T16:08:35;13.47;;;12.47;;
20142;SDS011;10509;46.476;7.134;2023-02-28T16:11:01;13.00;;;12.17;;
20142;SDS011;10509;46.476;7.134;2023-02-28T16:13:27;13.23;;;12.23;;
20142;SDS011;10509;46.476;7.134;2023-02-28T16:15:53;12.90;;;12.10;;
20142;SDS011;10509;46.476;7.134;2023-02-28T16:18:19;13.73;;;12.63;;
20142;SDS011;10509;46.476;7.134;2023-02-28T16:20:45;13.33;;;12.47;;
20142;SDS011;10509;46.476;7.134;2023-02-28T16:23:11;13.90;;;12.93;;
20142;SDS011;10509;46.476;7.134;2023-02-28T16:25:41;13.20;;;12.30;;
20142;SDS011;10509;46.476;7.134;2023-02-28T16:28:15;13.60;;;12.70;;
20142;SDS011;10509;46.476;7.134;2023-02-28T16:30:43;13.60;;;12.70;;
20142;SDS011;10509;46.476;7.134;2023-02-28T16:33:09;13.87;;;12.70;;
20142;SDS011;10509;46.476;7.134;2023-02-28T16:35:35;12.53;;;11.73;;
20142;SDS011;10509;46.476;7.134;2023-02-28T16:38:01;12.73;;;11.83;;
20142;SDS011;10509;46.476;7.134;2023-02-28T16:40:27;13.77;;;12.97;;
20142;SDS011;10509;46.476;7.134;2023-02-28T16:42:55;12.63;;;11.73;;
20142;SDS011;10509;46.476;7.134;2023-02-28T16:45:25;13.63;;;12.73;;
20142;SDS011;10509;46.476;7.134;2023-02-28T16:47:51;13.10;;;12.30;;
20142;SDS011;10509;46.476;7.134;2023-02-28T16:50:27;12.53;;;11.63;;
20142;SDS011;10509;46.476;7.134;2023-02-28T16:52:53;11.60;;;10.80;;
20142;SDS011;10509;46.476;7.134;2023-02-28T16:55:20;14.37;;;13.33;;
20142;SDS011;10509;46.476;7.134;2023-02-28T16:57:48;13.50;;;12.40;;
20142;SDS011;10509;46.476;7.134;2023-02-28T17:00:16;13.40;;;12.47;;
20142;SDS011;10509;46.476;7.134;2023-02-28T17:02:42;12.70;;;11.87;;
20142;SDS011;10509;46.476;7.134;2023-02-28T17:05:10;13.03;;;12.07;;
20142;SDS011;10509;46.476;7.134;2023-02-28T17:07:36;12.53;;;11.73;;
20142;SDS011;10509;46.476;7.134;2023-02-28T17:10:04;14.10;;;12.87;;
20142;SDS011;10509;46.476;7.134;2023-02-28T17:12:34;13.90;;;13.10;;
20142;SDS011;10509;46.476;7.134;2023-02-28T17:15:00;11.13;;;10.53;;
20142;SDS011;10509;46.476;7.134;2023-02-28T17:17:26;13.07;;;12.10;;
20142;SDS011;10509;46.476;7.134;2023-02-28T17:19:52;12.67;;;11.93;;
20142;SDS011;10509;46.476;7.134;2023-02-28T17:22:18;13.20;;;12.40;;